sensor_id;sensor_type;location;lat;lon;timestamp;temperature;humidity
13320;DHT22;59599;47.608;12.190;2023-10-09T04:11:52;13.50;99.90
13320;DHT22;59599;47.608;12.190;2023-10-09T04:14:40;13.50;99.90
13320;DHT22;59599;47.608;12.190;2023-10-09T04:17:23;13.30;99.90
13320;DHT22;59599;47.608;12.190;2023-10-09T04:22:40;13.30;99.90
13320;DHT22;59599;47.608;12.190;2023-10-09T04:27:56;13.40;99.90
13320;DHT22;59599;47.608;12.190;2023-10-09T04:45:47;13.40;99.90
13320;DHT22;59599;47.608;12.190;2023-10-09T04:51:03;13.50;99.90
13320;DHT22;59599;47.608;12.190;2023-10-09T04:53:57;13.40;99.90
13320;DHT22;59599;47.608;12.190;2023-10-09T05:14:52;13.50;99.90
13320;DHT22;59599;47.608;12.190;2023-10-09T05:17:35;13.40;99.90
13320;DHT22;59599;47.608;12.190;2023-10-09T05:20:07;13.40;99.90
13320;DHT22;59599;47.608;12.190;2023-10-09T05:22:54;13.40;99.90
13320;DHT22;59599;47.608;12.190;2023-10-09T05:25:26;13.30;99.90
13320;DHT22;59599;47.608;12.190;2023-10-09T05:30:59;13.20;99.90
13320;DHT22;59599;47.608;12.190;2023-10-09T05:33:36;13.30;99.90
13320;DHT22;59599;47.608;12.190;2023-10-09T05:36:04;13.40;99.90
13320;DHT22;59599;47.608;12.190;2023-10-09T05:38:40;13.50;99.90
13320;DHT22;59599;47.608;12.190;2023-10-09T05:41:12;13.50;99.90
13320;DHT22;59599;47.608;12.190;2023-10-09T05:47:01;13.60;99.90
13320;DHT22;59599;47.608;12.190;2023-10-09T05:49:45;13.70;99.90
13320;DHT22;59599;47.608;12.190;2023-10-09T05:52:14;13.60;99.90
13320;DHT22;59599;47.608;12.190;2023-10-09T05:55:07;13.50;99.90
13320;DHT22;59599;47.608;12.190;2023-10-09T05:57:46;13.50;99.90
13320;DHT22;59599;47.608;12.190;2023-10-09T06:00:30;13.50;99.90
13320;DHT22;59599;47.608;12.190;2023-10-09T06:05:56;13.80;99.90
13320;DHT22;59599;47.608;12.190;2023-10-09T06:08:23;13.80;99.90
13320;DHT22;59599;47.608;12.190;2023-10-09T06:11:07;13.80;99.90
13320;DHT22;59599;47.608;12.190;2023-10-09T06:16:32;13.80;99.90
13320;DHT22;59599;47.608;12.190;2023-10-09T06:19:04;13.80;99.90
13320;DHT22;59599;47.608;12.190;2023-10-09T06:21:37;13.50;99.90
13320;DHT22;59599;47.608;12.190;2023-10-09T06:26:59;13.70;99.90
13320;DHT22;59599;47.608;12.190;2023-10-09T06:29:26;13.70;99.90
13320;DHT22;59599;47.608;12.190;2023-10-09T06:32:07;13.80;99.90
13320;DHT22;59599;47.608;12.190;2023-10-09T06:34:57;13.80;99.90
13320;DHT22;59599;47.608;12.190;2023-10-09T06:37:50;13.80;99.90
13320;DHT22;59599;47.608;12.190;2023-10-09T06:40:34;13.70;99.90
13320;DHT22;59599;47.608;12.190;2023-10-09T06:43:06;13.90;99.90
13320;DHT22;59599;47.608;12.190;2023-10-09T06:45:56;14.00;99.90
13320;DHT22;59599;47.608;12.190;2023-10-09T06:48:40;13.90;99.90
13320;DHT22;59599;47.608;12.190;2023-10-09T06:51:11;13.90;99.90
13320;DHT22;59599;47.608;12.190;2023-10-09T06:53:52;13.90;99.90
13320;DHT22;59599;47.608;12.190;2023-10-09T06:59:10;13.80;99.90
13320;DHT22;59599;47.608;12.190;2023-10-09T07:01:50;13.80;99.90
13320;DHT22;59599;47.608;12.190;2023-10-09T07:04:37;13.80;99.90
13320;DHT22;59599;47.608;12.190;2023-10-09T07:07:03;13.80;99.90
13320;DHT22;59599;47.608;12.190;2023-10-09T07:09:49;13.90;99.90
13320;DHT22;59599;47.608;12.190;2023-10-09T07:12:33;14.00;99.90
13320;DHT22;59599;47.608;12.190;2023-10-09T07:15:01;14.00;99.90
13320;DHT22;59599;47.608;12.190;2023-10-09T07:17:33;14.10;99.90
13320;DHT22;59599;47.608;12.190;2023-10-09T07:19:59;14.20;99.90
13320;DHT22;59599;47.608;12.190;2023-10-09T07:22:44;14.30;99.90
13320;DHT22;59599;47.608;12.190;2023-10-09T07:25:22;14.30;99.90
13320;DHT22;59599;47.608;12.190;2023-10-09T07:30:55;14.30;99.90
13320;DHT22;59599;47.608;12.190;2023-10-09T07:33:23;14.40;99.90
13320;DHT22;59599;47.608;12.190;2023-10-09T07:36:01;14.60;99.90
13320;DHT22;59599;47.608;12.190;2023-10-09T07:38:31;14.70;99.90
13320;DHT22;59599;47.608;12.190;2023-10-09T07:41:04;14.90;99.90
13320;DHT22;59599;47.608;12.190;2023-10-09T07:43:33;15.00;99.90
13320;DHT22;59599;47.608;12.190;2023-10-09T07:46:05;15.10;99.90
13320;DHT22;59599;47.608;12.190;2023-10-09T07:48:50;15.30;99.90
13320;DHT22;59599;47.608;12.190;2023-10-09T07:51:19;15.40;99.90
13320;DHT22;59599;47.608;12.190;2023-10-09T07:53:50;15.50;99.90
13320;DHT22;59599;47.608;12.190;2023-10-09T07:56:25;15.60;99.90
13320;DHT22;59599;47.608;12.190;2023-10-09T07:58:55;15.80;99.90
13320;DHT22;59599;47.608;12.190;2023-10-09T08:04:04;16.00;99.90
13320;DHT22;59599;47.608;12.190;2023-10-09T08:06:45;16.20;99.90
13320;DHT22;59599;47.608;12.190;2023-10-09T08:09:13;16.30;99.90
13320;DHT22;59599;47.608;12.190;2023-10-09T08:11:44;16.40;99.90
13320;DHT22;59599;47.608;12.190;2023-10-09T08:14:13;16.40;99.90
13320;DHT22;59599;47.608;12.190;2023-10-09T08:16:49;16.60;99.90
13320;DHT22;59599;47.608;12.190;2023-10-09T08:19:17;16.70;99.90
13320;DHT22;59599;47.608;12.190;2023-10-09T08:22:01;16.70;99.90
13320;DHT22;59599;47.608;12.190;2023-10-09T08:32:49;17.20;99.90
13320;DHT22;59599;47.608;12.190;2023-10-09T08:35:31;17.40;99.90
13320;DHT22;59599;47.608;12.190;2023-10-09T08:38:03;17.50;99.90
13320;DHT22;59599;47.608;12.190;2023-10-09T08:40:38;17.60;99.90
13320;DHT22;59599;47.608;12.190;2023-10-09T08:45:38;17.70;99.90
13320;DHT22;59599;47.608;12.190;2023-10-09T08:48:06;17.70;99.90
13320;DHT22;59599;47.608;12.190;2023-10-09T08:50:32;17.80;99.90
13320;DHT22;59599;47.608;12.190;2023-10-09T08:55:26;18.20;99.90
13320;DHT22;59599;47.608;12.190;2023-10-09T09:00:21;18.20;99.90
13320;DHT22;59599;47.608;12.190;2023-10-09T09:02:50;18.10;99.90
13320;DHT22;59599;47.608;12.190;2023-10-09T09:12:49;18.10;99.90
13320;DHT22;59599;47.608;12.190;2023-10-09T09:15:19;18.10;99.90
13320;DHT22;59599;47.608;12.190;2023-10-09T09:17:49;18.20;99.90
13320;DHT22;59599;47.608;12.190;2023-10-09T09:20:23;18.40;99.90
13320;DHT22;59599;47.608;12.190;2023-10-09T09:22:53;18.50;99.90
13320;DHT22;59599;47.608;12.190;2023-10-09T09:25:23;18.70;99.90
13320;DHT22;59599;47.608;12.190;2023-10-09T09:27:56;18.80;99.90
13320;DHT22;59599;47.608;12.190;2023-10-09T09:30:26;19.00;99.90
13320;DHT22;59599;47.608;12.190;2023-10-09T09:32:59;19.10;99.90
13320;DHT22;59599;47.608;12.190;2023-10-09T09:35:59;19.40;99.90
13320;DHT22;59599;47.608;12.190;2023-10-09T09:38:28;19.50;99.90
13320;DHT22;59599;47.608;12.190;2023-10-09T09:40:57;19.70;99.90
13320;DHT22;59599;47.608;12.190;2023-10-09T09:45:53;20.10;99.90
13320;DHT22;59599;47.608;12.190;2023-10-09T09:48:20;20.30;99.90
13320;DHT22;59599;47.608;12.190;2023-10-09T09:55:54;20.40;99.90
13320;DHT22;59599;47.608;12.190;2023-10-09T09:58:24;20.40;99.90
13320;DHT22;59599;47.608;12.190;2023-10-09T10:00:53;20.40;99.90
13320;DHT22;59599;47.608;12.190;2023-10-09T10:03:27;20.40;99.90
13320;DHT22;59599;47.608;12.190;2023-10-09T10:05:56;20.40;99.90
13320;DHT22;59599;47.608;12.190;2023-10-09T10:08:23;20.40;99.90
13320;DHT22;59599;47.608;12.190;2023-10-09T10:10:56;20.40;99.90
13320;DHT22;59599;47.608;12.190;2023-10-09T10:13:54;20.40;99.90
13320;DHT22;59599;47.608;12.190;2023-10-09T10:16:24;20.50;99.90
13320;DHT22;59599;47.608;12.190;2023-10-09T10:18:57;20.50;99.90
13320;DHT22;59599;47.608;12.190;2023-10-09T10:21:33;20.50;99.90
13320;DHT22;59599;47.608;12.190;2023-10-09T10:30:27;20.70;99.90
13320;DHT22;59599;47.608;12.190;2023-10-09T10:33:00;20.70;99.90
13320;DHT22;59599;47.608;12.190;2023-10-09T10:38:31;20.80;99.90
13320;DHT22;59599;47.608;12.190;2023-10-09T10:41:17;20.90;99.90
13320;DHT22;59599;47.608;12.190;2023-10-09T10:43:44;21.00;99.90
13320;DHT22;59599;47.608;12.190;2023-10-09T10:46:16;21.20;99.90
13320;DHT22;59599;47.608;12.190;2023-10-09T10:49:10;21.40;99.90
13320;DHT22;59599;47.608;12.190;2023-10-09T10:54:08;21.70;99.90
13320;DHT22;59599;47.608;12.190;2023-10-09T10:57:19;21.80;99.90
13320;DHT22;59599;47.608;12.190;2023-10-09T11:00:11;21.80;99.90
13320;DHT22;59599;47.608;12.190;2023-10-09T11:03:00;21.80;99.90
13320;DHT22;59599;47.608;12.190;2023-10-09T11:05:43;22.00;99.90
13320;DHT22;59599;47.608;12.190;2023-10-09T11:08:16;22.10;99.90
13320;DHT22;59599;47.608;12.190;2023-10-09T11:10:49;22.20;99.90
13320;DHT22;59599;47.608;12.190;2023-10-09T11:13:27;22.40;99.90
13320;DHT22;59599;47.608;12.190;2023-10-09T11:15:56;22.60;99.90
13320;DHT22;59599;47.608;12.190;2023-10-09T11:18:40;22.90;99.90
13320;DHT22;59599;47.608;12.190;2023-10-09T11:21:13;23.10;99.90
13320;DHT22;59599;47.608;12.190;2023-10-09T11:23:41;23.20;99.90
13320;DHT22;59599;47.608;12.190;2023-10-09T11:26:24;23.10;99.90
13320;DHT22;59599;47.608;12.190;2023-10-09T11:29:10;23.00;99.90
13320;DHT22;59599;47.608;12.190;2023-10-09T11:31:41;22.90;99.90
13320;DHT22;59599;47.608;12.190;2023-10-09T11:34:20;22.90;99.90
13320;DHT22;59599;47.608;12.190;2023-10-09T11:37:00;22.90;99.90
13320;DHT22;59599;47.608;12.190;2023-10-09T11:39:29;22.70;99.90
13320;DHT22;59599;47.608;12.190;2023-10-09T11:42:07;22.70;99.90
13320;DHT22;59599;47.608;12.190;2023-10-09T11:44:36;22.60;99.90
13320;DHT22;59599;47.608;12.190;2023-10-09T11:47:05;22.60;99.90
13320;DHT22;59599;47.608;12.190;2023-10-09T11:49:55;22.60;99.90
13320;DHT22;59599;47.608;12.190;2023-10-09T11:52:58;22.60;99.90
13320;DHT22;59599;47.608;12.190;2023-10-09T11:55:51;22.70;99.90
13320;DHT22;59599;47.608;12.190;2023-10-09T11:58:21;22.60;99.90
13320;DHT22;59599;47.608;12.190;2023-10-09T12:00:59;22.50;99.90
13320;DHT22;59599;47.608;12.190;2023-10-09T12:03:28;22.40;99.90
13320;DHT22;59599;47.608;12.190;2023-10-09T12:06:02;22.50;99.90
13320;DHT22;59599;47.608;12.190;2023-10-09T12:08:34;22.60;99.90
13320;DHT22;59599;47.608;12.190;2023-10-09T12:11:03;22.90;99.90
13320;DHT22;59599;47.608;12.190;2023-10-09T12:15:59;23.50;99.90
13320;DHT22;59599;47.608;12.190;2023-10-09T12:20:51;24.30;99.90
13320;DHT22;59599;47.608;12.190;2023-10-09T12:23:18;24.60;99.90
13320;DHT22;59599;47.608;12.190;2023-10-09T12:25:44;24.80;99.90
13320;DHT22;59599;47.608;12.190;2023-10-09T12:28:11;24.80;99.90
13320;DHT22;59599;47.608;12.190;2023-10-09T12:30:39;24.70;99.90
13320;DHT22;59599;47.608;12.190;2023-10-09T12:33:05;24.70;99.90
13320;DHT22;59599;47.608;12.190;2023-10-09T12:35:36;24.70;99.90
13320;DHT22;59599;47.608;12.190;2023-10-09T12:38:02;24.80;99.90
13320;DHT22;59599;47.608;12.190;2023-10-09T12:42:57;24.80;99.90
13320;DHT22;59599;47.608;12.190;2023-10-09T12:45:26;24.70;99.90
13320;DHT22;59599;47.608;12.190;2023-10-09T12:47:55;24.60;99.90
13320;DHT22;59599;47.608;12.190;2023-10-09T12:50:27;24.50;99.90
13320;DHT22;59599;47.608;12.190;2023-10-09T12:52:56;24.40;99.90
13320;DHT22;59599;47.608;12.190;2023-10-09T12:55:30;24.30;99.90
13320;DHT22;59599;47.608;12.190;2023-10-09T12:58:01;24.30;99.90
13320;DHT22;59599;47.608;12.190;2023-10-09T13:00:37;24.20;99.90
13320;DHT22;59599;47.608;12.190;2023-10-09T13:03:05;24.10;99.90
13320;DHT22;59599;47.608;12.190;2023-10-09T13:05:48;24.00;99.90
13320;DHT22;59599;47.608;12.190;2023-10-09T13:08:27;23.90;99.90
13320;DHT22;59599;47.608;12.190;2023-10-09T13:11:03;23.80;99.90
13320;DHT22;59599;47.608;12.190;2023-10-09T13:13:36;23.70;99.90
13320;DHT22;59599;47.608;12.190;2023-10-09T13:16:14;23.70;99.90
13320;DHT22;59599;47.608;12.190;2023-10-09T13:18:49;23.60;99.90
13320;DHT22;59599;47.608;12.190;2023-10-09T13:21:22;23.50;99.90
13320;DHT22;59599;47.608;12.190;2023-10-09T13:23:48;23.50;99.90
13320;DHT22;59599;47.608;12.190;2023-10-09T13:26:18;23.40;99.90
13320;DHT22;59599;47.608;12.190;2023-10-09T13:28:45;23.30;99.90
13320;DHT22;59599;47.608;12.190;2023-10-09T13:31:15;23.30;99.90
13320;DHT22;59599;47.608;12.190;2023-10-09T13:33:41;23.20;99.90
13320;DHT22;59599;47.608;12.190;2023-10-09T13:36:11;23.20;99.90
13320;DHT22;59599;47.608;12.190;2023-10-09T13:41:18;23.10;99.90
13320;DHT22;59599;47.608;12.190;2023-10-09T13:43:44;23.10;99.90
13320;DHT22;59599;47.608;12.190;2023-10-09T13:46:10;23.10;99.90
13320;DHT22;59599;47.608;12.190;2023-10-09T13:48:39;23.00;99.90
13320;DHT22;59599;47.608;12.190;2023-10-09T13:51:09;23.00;99.90
13320;DHT22;59599;47.608;12.190;2023-10-09T13:53:40;22.90;99.90
13320;DHT22;59599;47.608;12.190;2023-10-09T13:56:20;22.90;99.90
13320;DHT22;59599;47.608;12.190;2023-10-09T13:58:49;22.80;99.90
13320;DHT22;59599;47.608;12.190;2023-10-09T14:01:20;22.70;99.90
13320;DHT22;59599;47.608;12.190;2023-10-09T14:03:59;22.70;99.90
13320;DHT22;59599;47.608;12.190;2023-10-09T14:06:26;22.60;99.90
13320;DHT22;59599;47.608;12.190;2023-10-09T14:09:03;22.60;99.90
13320;DHT22;59599;47.608;12.190;2023-10-09T14:11:33;22.50;99.90
13320;DHT22;59599;47.608;12.190;2023-10-09T14:14:06;22.50;99.90
13320;DHT22;59599;47.608;12.190;2023-10-09T14:19:08;22.40;99.90
13320;DHT22;59599;47.608;12.190;2023-10-09T14:21:39;22.30;99.90
13320;DHT22;59599;47.608;12.190;2023-10-09T14:24:06;22.20;99.90
13320;DHT22;59599;47.608;12.190;2023-10-09T14:26:42;22.20;99.90
13320;DHT22;59599;47.608;12.190;2023-10-09T14:29:11;22.20;99.90
13320;DHT22;59599;47.608;12.190;2023-10-09T14:31:44;22.40;99.90
13320;DHT22;59599;47.608;12.190;2023-10-09T14:39:09;22.40;99.90
13320;DHT22;59599;47.608;12.190;2023-10-09T14:44:05;22.30;99.90
13320;DHT22;59599;47.608;12.190;2023-10-09T14:46:31;22.30;99.90
13320;DHT22;59599;47.608;12.190;2023-10-09T14:51:24;22.10;99.90
13320;DHT22;59599;47.608;12.190;2023-10-09T14:53:56;22.00;99.90
13320;DHT22;59599;47.608;12.190;2023-10-09T14:56:31;21.90;99.90
13320;DHT22;59599;47.608;12.190;2023-10-09T14:58:59;21.90;99.90
13320;DHT22;59599;47.608;12.190;2023-10-09T15:01:26;21.80;99.90
13320;DHT22;59599;47.608;12.190;2023-10-09T15:04:00;21.70;99.90
13320;DHT22;59599;47.608;12.190;2023-10-09T15:06:29;21.70;99.90
13320;DHT22;59599;47.608;12.190;2023-10-09T15:08:59;21.70;99.90
13320;DHT22;59599;47.608;12.190;2023-10-09T15:11:33;21.80;99.90
13320;DHT22;59599;47.608;12.190;2023-10-09T15:16:25;22.30;99.90
13320;DHT22;59599;47.608;12.190;2023-10-09T15:18:53;22.60;99.90
13320;DHT22;59599;47.608;12.190;2023-10-09T15:21:20;22.60;99.60
13320;DHT22;59599;47.608;12.190;2023-10-09T15:23:49;22.60;99.90
13320;DHT22;59599;47.608;12.190;2023-10-09T15:26:17;22.60;99.90
13320;DHT22;59599;47.608;12.190;2023-10-09T15:28:42;22.50;99.90
13320;DHT22;59599;47.608;12.190;2023-10-09T15:31:08;22.40;99.90
13320;DHT22;59599;47.608;12.190;2023-10-09T15:33:37;22.30;99.90
13320;DHT22;59599;47.608;12.190;2023-10-09T15:36:15;22.20;99.90
13320;DHT22;59599;47.608;12.190;2023-10-09T15:38:43;22.10;99.50
13320;DHT22;59599;47.608;12.190;2023-10-09T15:41:09;22.10;99.90
13320;DHT22;59599;47.608;12.190;2023-10-09T15:43:38;22.10;98.70
13320;DHT22;59599;47.608;12.190;2023-10-09T15:46:13;22.10;98.70
13320;DHT22;59599;47.608;12.190;2023-10-09T15:48:43;22.00;99.40
13320;DHT22;59599;47.608;12.190;2023-10-09T15:51:10;22.00;99.80
13320;DHT22;59599;47.608;12.190;2023-10-09T15:56:03;21.80;99.90
13320;DHT22;59599;47.608;12.190;2023-10-09T15:58:29;21.80;99.90
13320;DHT22;59599;47.608;12.190;2023-10-09T16:03:20;21.90;99.00
13320;DHT22;59599;47.608;12.190;2023-10-09T16:15:40;21.70;99.90
13320;DHT22;59599;47.608;12.190;2023-10-09T16:18:08;21.60;99.90
13320;DHT22;59599;47.608;12.190;2023-10-09T16:20:33;21.50;99.90
13320;DHT22;59599;47.608;12.190;2023-10-09T16:22:59;21.50;99.90
13320;DHT22;59599;47.608;12.190;2023-10-09T16:25:30;21.50;99.90
13320;DHT22;59599;47.608;12.190;2023-10-09T16:27:56;21.50;99.90
13320;DHT22;59599;47.608;12.190;2023-10-09T16:30:23;21.40;99.90
13320;DHT22;59599;47.608;12.190;2023-10-09T16:32:49;21.40;99.90
13320;DHT22;59599;47.608;12.190;2023-10-09T16:35:16;21.30;99.90
13320;DHT22;59599;47.608;12.190;2023-10-09T16:37:42;21.20;99.90
13320;DHT22;59599;47.608;12.190;2023-10-09T16:40:07;21.10;99.90
13320;DHT22;59599;47.608;12.190;2023-10-09T16:42:40;21.10;99.90
13320;DHT22;59599;47.608;12.190;2023-10-09T16:45:08;21.20;99.90
13320;DHT22;59599;47.608;12.190;2023-10-09T16:47:38;21.20;99.90
13320;DHT22;59599;47.608;12.190;2023-10-09T16:50:13;21.20;99.90
13320;DHT22;59599;47.608;12.190;2023-10-09T16:55:09;20.90;99.90
13320;DHT22;59599;47.608;12.190;2023-10-09T16:57:36;20.50;99.90
13320;DHT22;59599;47.608;12.190;2023-10-09T17:00:06;20.50;99.90
13320;DHT22;59599;47.608;12.190;2023-10-09T17:02:41;20.40;99.90
13320;DHT22;59599;47.608;12.190;2023-10-09T17:05:09;20.60;99.90
13320;DHT22;59599;47.608;12.190;2023-10-09T17:07:35;20.50;99.90
13320;DHT22;59599;47.608;12.190;2023-10-09T17:12:43;20.40;99.90
13320;DHT22;59599;47.608;12.190;2023-10-09T17:17:41;20.40;99.90
13320;DHT22;59599;47.608;12.190;2023-10-09T17:20:11;20.30;99.90
13320;DHT22;59599;47.608;12.190;2023-10-09T17:22:37;20.20;99.90
13320;DHT22;59599;47.608;12.190;2023-10-09T17:32:23;20.00;99.90
13320;DHT22;59599;47.608;12.190;2023-10-09T17:34:50;20.00;99.90
13320;DHT22;59599;47.608;12.190;2023-10-09T17:37:19;19.90;99.90
13320;DHT22;59599;47.608;12.190;2023-10-09T17:39:48;19.90;99.90
13320;DHT22;59599;47.608;12.190;2023-10-09T17:44:39;19.80;99.90
13320;DHT22;59599;47.608;12.190;2023-10-09T17:47:05;19.70;99.90
13320;DHT22;59599;47.608;12.190;2023-10-09T17:49:31;19.60;99.90
13320;DHT22;59599;47.608;12.190;2023-10-09T17:54:25;19.30;99.90
13320;DHT22;59599;47.608;12.190;2023-10-09T17:56:53;19.30;99.90
13320;DHT22;59599;47.608;12.190;2023-10-09T17:59:21;19.10;99.90
13320;DHT22;59599;47.608;12.190;2023-10-09T18:04:12;19.10;99.90
13320;DHT22;59599;47.608;12.190;2023-10-09T18:06:39;19.00;99.90
13320;DHT22;59599;47.608;12.190;2023-10-09T18:09:05;19.00;99.90
13320;DHT22;59599;47.608;12.190;2023-10-09T18:11:42;18.90;99.90
13320;DHT22;59599;47.608;12.190;2023-10-09T18:14:09;18.80;99.90
13320;DHT22;59599;47.608;12.190;2023-10-09T18:16:36;18.80;99.90
13320;DHT22;59599;47.608;12.190;2023-10-09T18:19:04;18.90;99.90
13320;DHT22;59599;47.608;12.190;2023-10-09T18:21:30;18.90;99.90
13320;DHT22;59599;47.608;12.190;2023-10-09T18:23:55;18.90;99.90
13320;DHT22;59599;47.608;12.190;2023-10-09T18:26:24;18.90;99.90
13320;DHT22;59599;47.608;12.190;2023-10-09T18:31:18;18.70;99.90
13320;DHT22;59599;47.608;12.190;2023-10-09T18:33:49;18.50;99.90
13320;DHT22;59599;47.608;12.190;2023-10-09T18:36:18;18.40;99.90
13320;DHT22;59599;47.608;12.190;2023-10-09T18:38:43;18.20;99.90
13320;DHT22;59599;47.608;12.190;2023-10-09T18:41:10;18.20;99.90
13320;DHT22;59599;47.608;12.190;2023-10-09T18:43:36;18.30;99.90
13320;DHT22;59599;47.608;12.190;2023-10-09T18:48:31;18.30;99.90
13320;DHT22;59599;47.608;12.190;2023-10-09T18:50:56;18.30;99.90
13320;DHT22;59599;47.608;12.190;2023-10-09T18:53:22;18.40;99.90
13320;DHT22;59599;47.608;12.190;2023-10-09T18:55:48;18.50;99.90
13320;DHT22;59599;47.608;12.190;2023-10-09T18:58:14;18.50;99.90
13320;DHT22;59599;47.608;12.190;2023-10-09T19:00:44;18.40;99.90
13320;DHT22;59599;47.608;12.190;2023-10-09T19:03:12;18.40;99.90
13320;DHT22;59599;47.608;12.190;2023-10-09T19:05:42;18.40;99.90
13320;DHT22;59599;47.608;12.190;2023-10-09T19:08:12;18.40;99.90
13320;DHT22;59599;47.608;12.190;2023-10-09T19:10:38;18.30;99.90
13320;DHT22;59599;47.608;12.190;2023-10-09T19:13:06;18.20;99.90
13320;DHT22;59599;47.608;12.190;2023-10-09T19:15:38;18.20;99.90
13320;DHT22;59599;47.608;12.190;2023-10-09T19:18:07;18.20;99.90
13320;DHT22;59599;47.608;12.190;2023-10-09T19:20:40;18.20;99.90
13320;DHT22;59599;47.608;12.190;2023-10-09T19:23:06;18.10;99.90
13320;DHT22;59599;47.608;12.190;2023-10-09T19:32:56;18.10;99.90
13320;DHT22;59599;47.608;12.190;2023-10-09T19:35:22;18.10;99.90
13320;DHT22;59599;47.608;12.190;2023-10-09T19:40:18;18.10;99.90
13320;DHT22;59599;47.608;12.190;2023-10-09T19:42:43;18.10;99.90
13320;DHT22;59599;47.608;12.190;2023-10-09T19:45:10;18.10;99.90
13320;DHT22;59599;47.608;12.190;2023-10-09T19:47:37;18.00;99.90
13320;DHT22;59599;47.608;12.190;2023-10-09T19:50:08;17.90;99.90
13320;DHT22;59599;47.608;12.190;2023-10-09T19:52:42;17.90;99.90
13320;DHT22;59599;47.608;12.190;2023-10-09T19:55:09;18.00;99.90
13320;DHT22;59599;47.608;12.190;2023-10-09T20:04:52;17.90;99.90
13320;DHT22;59599;47.608;12.190;2023-10-09T20:07:18;17.70;99.90
13320;DHT22;59599;47.608;12.190;2023-10-09T20:09:44;17.70;99.90
13320;DHT22;59599;47.608;12.190;2023-10-09T20:14:38;17.60;99.90
13320;DHT22;59599;47.608;12.190;2023-10-09T20:17:04;17.60;99.90
13320;DHT22;59599;47.608;12.190;2023-10-09T20:19:31;17.60;99.90
13320;DHT22;59599;47.608;12.190;2023-10-09T20:26:50;17.60;99.90
13320;DHT22;59599;47.608;12.190;2023-10-09T20:29:16;17.60;99.90
13320;DHT22;59599;47.608;12.190;2023-10-09T20:31:42;17.70;99.90
13320;DHT22;59599;47.608;12.190;2023-10-09T20:34:10;17.70;99.90
13320;DHT22;59599;47.608;12.190;2023-10-09T20:36:39;17.50;99.90
13320;DHT22;59599;47.608;12.190;2023-10-09T20:39:11;17.50;99.90
13320;DHT22;59599;47.608;12.190;2023-10-09T20:41:38;17.50;99.90
13320;DHT22;59599;47.608;12.190;2023-10-09T20:46:36;17.50;99.90
13320;DHT22;59599;47.608;12.190;2023-10-09T20:49:03;17.50;99.90
13320;DHT22;59599;47.608;12.190;2023-10-09T20:51:29;17.50;99.90
13320;DHT22;59599;47.608;12.190;2023-10-09T20:53:55;17.50;99.90
13320;DHT22;59599;47.608;12.190;2023-10-09T20:56:24;17.50;99.90
13320;DHT22;59599;47.608;12.190;2023-10-09T21:03:45;17.40;99.90
13320;DHT22;59599;47.608;12.190;2023-10-09T21:06:11;17.40;99.90
13320;DHT22;59599;47.608;12.190;2023-10-09T21:08:40;17.30;99.90
13320;DHT22;59599;47.608;12.190;2023-10-09T21:11:06;17.30;99.90
13320;DHT22;59599;47.608;12.190;2023-10-09T21:13:35;17.30;99.90
13320;DHT22;59599;47.608;12.190;2023-10-09T21:16:06;17.30;99.90
13320;DHT22;59599;47.608;12.190;2023-10-09T21:18:32;17.30;99.90
13320;DHT22;59599;47.608;12.190;2023-10-09T21:20:59;17.30;99.90
13320;DHT22;59599;47.608;12.190;2023-10-09T21:23:25;17.30;99.90
13320;DHT22;59599;47.608;12.190;2023-10-09T21:25:50;17.30;99.90
13320;DHT22;59599;47.608;12.190;2023-10-09T21:28:17;17.30;99.90
13320;DHT22;59599;47.608;12.190;2023-10-09T21:30:44;17.20;99.90
13320;DHT22;59599;47.608;12.190;2023-10-09T21:33:09;17.20;99.90
13320;DHT22;59599;47.608;12.190;2023-10-09T21:35:35;17.20;99.90
13320;DHT22;59599;47.608;12.190;2023-10-09T21:38:03;17.20;99.90
13320;DHT22;59599;47.608;12.190;2023-10-09T21:40:31;17.20;99.90
13320;DHT22;59599;47.608;12.190;2023-10-09T21:43:00;17.10;99.90
13320;DHT22;59599;47.608;12.190;2023-10-09T21:45:39;17.20;99.90
13320;DHT22;59599;47.608;12.190;2023-10-09T21:48:08;17.10;99.90
13320;DHT22;59599;47.608;12.190;2023-10-09T21:53:05;17.20;99.90
